Brocton, New York
Current Conditions -  °F | °C
As of 3:53 AM on Wednesday 28 Jan 2015 (Local Time) from KDKK Reporting Station
Clear Clear  
Wind Chill: -12°   Ceiling: Unl
Heat Index:   Visibility: 10mi
Dew Point: -1°   Wind: 8mph
Humidity: 88%   Direction: 230°SW
Pressure: 30.18"   Gusts: NA
Location:  42.39°N, 79.44°W
Report Text: KDKK 280853Z AUTO 23007KT 10SM CLR M17/M18 A3018 RMK AO2 SLP235 I1000 I3000 T11671183 53012
Loading
Personal Weather Stations






























Interactive Weather Map New forecast layout! Learn more

10-Day Weather Forecast

Advertisements
Track Severe Weather on mobile